Details From KLAX - Los Angeles Intl
To KAVX - Catalina
Flight Number -
Tags Routegen Generated
Created
Modified
Stats Distance 41 nm / 75 km
Max Altitude 100 ft / 30 m
Waypoints 5
Social Downloads 5
Likes 0
Share VATSIM

Download

Looking for another format? Having issues loading an existing format? Contact us
Advertisement - Login to hide

Notes

Departing runway 8 KLAX. Arriving runway 5 KAVX.

Route

KLAX +33.95_-118.29 +33.72_-118.28 +33.49_-118.27 KAVX

ID Type Via Altitude Latitude Longitude Leg Dist Tot Dist Heading (true) Name
O KLAX APT - 100 ft / 30 m 33.93990˚ -118.37984˚ - 0 nm - -
+33.95_-118.29 DME - 100 ft / 30 m 33.94871˚ -118.29326˚ 4 nm 4 nm 83° / 83° -
+33.72_-118.28 DME - 100 ft / 30 m 33.71945˚ -118.28145˚ 13 nm 18 nm 178° / 178° -
+33.49_-118.27 DME - 100 ft / 30 m 33.49020˚ -118.26964˚ 13 nm 31 nm 178° / 178° -
O KAVX APT - 0 ft / 0 m 33.40712˚ -118.41168˚ 8 nm 40 nm 235° / 235° -

Altitude Profile

Advertisement - Login to hide

KLAX

Details ICAO KLAX (LAX)
Name Los Angeles Intl
Region United States
Timezone America/Los_Angeles (UTC-8.0)
Stats Elevation 126 ft / 38 m (AMSL)
Location 33.943130° -118.408917°
Runways 4
Magnetic Variation 12.006° E

METAR

KLAX 161053Z 00000KT 7SM SCT008 BKN200 13/06 A2986 RMK AO2 SLP108 SCT V BKN T01330061

Decode

TAF

KLAX 160905Z 1609/1712 VRB03KT P6SM BKN250 FM161100 06005KT 6SM BR BKN250 FM161700 07007KT P6SM BKN250 FM162100 26010KT P6SM SCT250 FM170300 VRB03KT P6SM SCT250 FM170900 04007KT P6SM SCT250 WS010/03035KT

Decode

Departure Runways

ID Width Length Bearing (true) Bearing (mag) Surface Threshold Offset Overrun Length
06L 151 ft / 46 m 8,907 ft / 2,715 m 82.98° 70.97° Concrete 0 ft / 0 m 0 ft / 0 m
06R 151 ft / 46 m 10,266 ft / 3,129 m 82.95° 70.94° Concrete 331 ft / 101 m 0 ft / 0 m
07L 151 ft / 46 m 12,069 ft / 3,679 m 82.96° 70.95° Concrete 0 ft / 0 m 0 ft / 0 m
07R 200 ft / 61 m 11,081 ft / 3,377 m 82.96° 70.95° Concrete 0 ft / 0 m 397 ft / 121 m
24L 151 ft / 46 m 10,266 ft / 3,129 m 262.97° 250.96° Concrete 0 ft / 0 m 174 ft / 53 m
24R 151 ft / 46 m 8,907 ft / 2,715 m 263.00° 250.99° Concrete 0 ft / 0 m 305 ft / 93 m
25L 200 ft / 61 m 11,081 ft / 3,377 m 262.98° 250.97° Concrete 0 ft / 0 m 1,053 ft / 321 m
25R 151 ft / 46 m 12,069 ft / 3,679 m 262.98° 250.97° Concrete 958 ft / 292 m 154 ft / 47 m

KAVX

Details ICAO KAVX (AVX)
Name Catalina
Region United States
Timezone America/Los_Angeles (UTC-8.0)
Stats Elevation 1,601 ft / 488 m (AMSL)
Location 33.404656° -118.415880°
Runways 1
Magnetic Variation 11.901° E

METAR

KAVX 161051Z AUTO 24010KT 1/2SM FG VV001 12/12 A2987 RMK AO2 PRESFR SLP101 T01170117

Decode

TAF

Not found

Destination Runways

ID Width Length Bearing (true) Bearing (mag) Surface Threshold Offset Overrun Length
04 59 ft / 18 m 3,127 ft / 953 m 54.93° 43.03° Asphalt 131 ft / 40 m 0 ft / 0 m
22 59 ft / 18 m 3,127 ft / 953 m 234.93° 223.03° Asphalt 62 ft / 19 m 0 ft / 0 m

Popular Alternatives